sensor_id;sensor_type;location;lat;lon;timestamp;P1;durP1;ratioP1;P2;durP2;ratioP2
22826;SDS011;11580;52.562;13.418;2023-01-25T00:00:43;11.83;;;10.60;;
22826;SDS011;11580;52.562;13.418;2023-01-25T00:03:11;12.53;;;11.23;;
22826;SDS011;11580;52.562;13.418;2023-01-25T00:05:38;11.33;;;10.23;;
22826;SDS011;11580;52.562;13.418;2023-01-25T00:08:05;11.73;;;10.53;;
22826;SDS011;11580;52.562;13.418;2023-01-25T00:10:32;11.57;;;10.33;;
22826;SDS011;11580;52.562;13.418;2023-01-25T00:13:01;10.40;;;9.37;;
22826;SDS011;11580;52.562;13.418;2023-01-25T00:15:28;11.00;;;9.93;;
22826;SDS011;11580;52.562;13.418;2023-01-25T00:17:56;12.40;;;11.20;;
22826;SDS011;11580;52.562;13.418;2023-01-25T00:20:23;12.13;;;10.93;;
22826;SDS011;11580;52.562;13.418;2023-01-25T00:22:51;11.93;;;10.60;;
22826;SDS011;11580;52.562;13.418;2023-01-25T00:25:18;12.43;;;10.63;;
22826;SDS011;11580;52.562;13.418;2023-01-25T00:27:46;12.17;;;10.87;;
22826;SDS011;11580;52.562;13.418;2023-01-25T00:30:16;11.13;;;10.00;;
22826;SDS011;11580;52.562;13.418;2023-01-25T00:32:48;12.60;;;11.30;;
22826;SDS011;11580;52.562;13.418;2023-01-25T00:35:28;10.83;;;9.83;;
22826;SDS011;11580;52.562;13.418;2023-01-25T00:37:57;12.67;;;11.37;;
22826;SDS011;11580;52.562;13.418;2023-01-25T00:40:31;12.43;;;11.23;;
22826;SDS011;11580;52.562;13.418;2023-01-25T00:42:58;11.53;;;10.30;;
22826;SDS011;11580;52.562;13.418;2023-01-25T00:45:27;11.63;;;9.83;;
22826;SDS011;11580;52.562;13.418;2023-01-25T00:47:54;11.27;;;9.90;;
22826;SDS011;11580;52.562;13.418;2023-01-25T00:50:21;11.47;;;10.37;;
22826;SDS011;11580;52.562;13.418;2023-01-25T00:52:49;12.63;;;10.47;;
22826;SDS011;11580;52.562;13.418;2023-01-25T00:55:16;11.50;;;10.30;;
22826;SDS011;11580;52.562;13.418;2023-01-25T00:57:43;12.53;;;11.10;;
22826;SDS011;11580;52.562;13.418;2023-01-25T01:00:11;11.87;;;10.77;;
22826;SDS011;11580;52.562;13.418;2023-01-25T01:02:41;10.83;;;9.73;;
22826;SDS011;11580;52.562;13.418;2023-01-25T01:05:08;11.77;;;9.83;;
22826;SDS011;11580;52.562;13.418;2023-01-25T01:07:35;10.67;;;9.70;;
22826;SDS011;11580;52.562;13.418;2023-01-25T01:10:03;13.30;;;9.77;;
22826;SDS011;11580;52.562;13.418;2023-01-25T01:12:32;10.67;;;9.57;;
22826;SDS011;11580;52.562;13.418;2023-01-25T01:14:59;10.27;;;9.27;;
22826;SDS011;11580;52.562;13.418;2023-01-25T01:17:26;10.93;;;9.90;;
22826;SDS011;11580;52.562;13.418;2023-01-25T01:19:55;10.93;;;9.83;;
22826;SDS011;11580;52.562;13.418;2023-01-25T01:22:22;10.80;;;9.80;;
22826;SDS011;11580;52.562;13.418;2023-01-25T01:24:49;10.97;;;9.70;;
22826;SDS011;11580;52.562;13.418;2023-01-25T01:27:17;10.70;;;9.60;;
22826;SDS011;11580;52.562;13.418;2023-01-25T01:29:44;10.80;;;9.80;;
22826;SDS011;11580;52.562;13.418;2023-01-25T01:32:11;12.83;;;10.60;;
22826;SDS011;11580;52.562;13.418;2023-01-25T01:34:39;11.47;;;10.20;;
22826;SDS011;11580;52.562;13.418;2023-01-25T01:37:08;12.97;;;11.77;;
22826;SDS011;11580;52.562;13.418;2023-01-25T01:39:35;11.97;;;10.77;;
22826;SDS011;11580;52.562;13.418;2023-01-25T01:42:03;12.63;;;11.43;;
22826;SDS011;11580;52.562;13.418;2023-01-25T01:44:44;13.53;;;11.10;;
22826;SDS011;11580;52.562;13.418;2023-01-25T01:47:14;11.30;;;10.20;;
22826;SDS011;11580;52.562;13.418;2023-01-25T01:49:52;11.50;;;9.77;;
22826;SDS011;11580;52.562;13.418;2023-01-25T01:52:28;10.03;;;9.00;;
22826;SDS011;11580;52.562;13.418;2023-01-25T01:55:01;12.70;;;11.30;;
22826;SDS011;11580;52.562;13.418;2023-01-25T01:57:33;11.40;;;10.20;;
22826;SDS011;11580;52.562;13.418;2023-01-25T02:00:10;11.37;;;10.10;;
22826;SDS011;11580;52.562;13.418;2023-01-25T02:02:43;10.17;;;9.17;;
22826;SDS011;11580;52.562;13.418;2023-01-25T02:05:13;13.60;;;10.93;;
22826;SDS011;11580;52.562;13.418;2023-01-25T02:07:49;13.17;;;11.97;;
22826;SDS011;11580;52.562;13.418;2023-01-25T02:10:20;11.13;;;9.93;;
22826;SDS011;11580;52.562;13.418;2023-01-25T02:12:53;11.20;;;10.10;;
22826;SDS011;11580;52.562;13.418;2023-01-25T02:15:25;11.90;;;10.67;;
22826;SDS011;11580;52.562;13.418;2023-01-25T02:17:57;11.93;;;10.83;;
22826;SDS011;11580;52.562;13.418;2023-01-25T02:20:27;11.10;;;10.00;;
22826;SDS011;11580;52.562;13.418;2023-01-25T02:23:05;11.63;;;10.50;;
22826;SDS011;11580;52.562;13.418;2023-01-25T02:25:45;15.07;;;11.87;;
22826;SDS011;11580;52.562;13.418;2023-01-25T02:28:14;13.43;;;12.03;;
22826;SDS011;11580;52.562;13.418;2023-01-25T02:30:49;13.10;;;11.90;;
22826;SDS011;11580;52.562;13.418;2023-01-25T02:33:16;11.40;;;10.30;;
22826;SDS011;11580;52.562;13.418;2023-01-25T02:35:44;14.30;;;12.90;;
22826;SDS011;11580;52.562;13.418;2023-01-25T02:38:16;12.43;;;11.23;;
22826;SDS011;11580;52.562;13.418;2023-01-25T02:40:51;14.87;;;11.90;;
22826;SDS011;11580;52.562;13.418;2023-01-25T02:43:27;13.17;;;11.87;;
22826;SDS011;11580;52.562;13.418;2023-01-25T02:46:02;12.60;;;11.40;;
22826;SDS011;11580;52.562;13.418;2023-01-25T02:48:37;12.20;;;10.83;;
22826;SDS011;11580;52.562;13.418;2023-01-25T02:51:06;11.40;;;10.37;;
22826;SDS011;11580;52.562;13.418;2023-01-25T02:53:34;13.33;;;10.80;;
22826;SDS011;11580;52.562;13.418;2023-01-25T02:56:03;13.73;;;12.30;;
22826;SDS011;11580;52.562;13.418;2023-01-25T02:58:31;13.97;;;11.97;;
22826;SDS011;11580;52.562;13.418;2023-01-25T03:00:58;13.03;;;11.73;;
22826;SDS011;11580;52.562;13.418;2023-01-25T03:03:26;13.30;;;11.67;;
22826;SDS011;11580;52.562;13.418;2023-01-25T03:05:53;13.23;;;11.87;;
22826;SDS011;11580;52.562;13.418;2023-01-25T03:08:20;12.87;;;11.60;;
22826;SDS011;11580;52.562;13.418;2023-01-25T03:10:50;13.97;;;12.43;;
22826;SDS011;11580;52.562;13.418;2023-01-25T03:13:23;13.33;;;11.97;;
22826;SDS011;11580;52.562;13.418;2023-01-25T03:15:50;11.77;;;10.67;;
22826;SDS011;11580;52.562;13.418;2023-01-25T03:18:23;12.43;;;11.13;;
22826;SDS011;11580;52.562;13.418;2023-01-25T03:20:50;14.70;;;13.00;;
22826;SDS011;11580;52.562;13.418;2023-01-25T03:23:18;13.67;;;12.13;;
22826;SDS011;11580;52.562;13.418;2023-01-25T03:25:45;15.27;;;13.10;;
22826;SDS011;11580;52.562;13.418;2023-01-25T03:28:15;13.70;;;12.30;;
22826;SDS011;11580;52.562;13.418;2023-01-25T03:30:51;14.07;;;11.70;;
22826;SDS011;11580;52.562;13.418;2023-01-25T03:33:19;13.70;;;12.27;;
22826;SDS011;11580;52.562;13.418;2023-01-25T03:35:50;13.20;;;11.90;;
22826;SDS011;11580;52.562;13.418;2023-01-25T03:38:17;14.03;;;12.07;;
22826;SDS011;11580;52.562;13.418;2023-01-25T03:40:45;14.37;;;12.27;;
22826;SDS011;11580;52.562;13.418;2023-01-25T03:43:13;12.60;;;11.40;;
22826;SDS011;11580;52.562;13.418;2023-01-25T03:45:41;12.93;;;11.60;;
22826;SDS011;11580;52.562;13.418;2023-01-25T03:48:13;13.77;;;12.37;;
22826;SDS011;11580;52.562;13.418;2023-01-25T03:50:40;15.10;;;13.50;;
22826;SDS011;11580;52.562;13.418;2023-01-25T03:53:08;13.87;;;12.37;;
22826;SDS011;11580;52.562;13.418;2023-01-25T03:55:44;15.37;;;13.70;;
22826;SDS011;11580;52.562;13.418;2023-01-25T03:58:12;15.83;;;14.23;;
22826;SDS011;11580;52.562;13.418;2023-01-25T04:00:39;15.47;;;12.57;;
22826;SDS011;11580;52.562;13.418;2023-01-25T04:03:06;15.27;;;13.63;;
22826;SDS011;11580;52.562;13.418;2023-01-25T04:05:35;16.77;;;13.17;;
22826;SDS011;11580;52.562;13.418;2023-01-25T04:08:02;16.63;;;13.67;;
22826;SDS011;11580;52.562;13.418;2023-01-25T04:10:36;17.13;;;14.50;;
22826;SDS011;11580;52.562;13.418;2023-01-25T04:13:04;16.07;;;13.00;;
22826;SDS011;11580;52.562;13.418;2023-01-25T04:15:33;14.90;;;13.40;;
22826;SDS011;11580;52.562;13.418;2023-01-25T04:18:08;14.30;;;12.80;;
22826;SDS011;11580;52.562;13.418;2023-01-25T04:20:37;16.47;;;13.53;;
22826;SDS011;11580;52.562;13.418;2023-01-25T04:23:04;14.80;;;12.50;;
22826;SDS011;11580;52.562;13.418;2023-01-25T04:25:35;14.13;;;12.67;;
22826;SDS011;11580;52.562;13.418;2023-01-25T04:28:09;13.43;;;12.03;;
22826;SDS011;11580;52.562;13.418;2023-01-25T04:30:36;13.40;;;12.00;;
22826;SDS011;11580;52.562;13.418;2023-01-25T04:33:03;15.20;;;13.60;;
22826;SDS011;11580;52.562;13.418;2023-01-25T04:35:32;14.00;;;12.50;;
22826;SDS011;11580;52.562;13.418;2023-01-25T04:38:02;15.33;;;13.60;;
22826;SDS011;11580;52.562;13.418;2023-01-25T04:40:37;15.10;;;13.50;;
22826;SDS011;11580;52.562;13.418;2023-01-25T04:43:05;13.63;;;12.23;;
22826;SDS011;11580;52.562;13.418;2023-01-25T04:45:33;14.23;;;12.73;;
22826;SDS011;11580;52.562;13.418;2023-01-25T04:48:06;14.70;;;13.20;;
22826;SDS011;11580;52.562;13.418;2023-01-25T04:50:39;14.93;;;12.50;;
22826;SDS011;11580;52.562;13.418;2023-01-25T04:53:10;14.27;;;12.43;;
22826;SDS011;11580;52.562;13.418;2023-01-25T04:55:39;13.00;;;11.80;;
22826;SDS011;11580;52.562;13.418;2023-01-25T04:58:09;14.67;;;12.20;;
22826;SDS011;11580;52.562;13.418;2023-01-25T05:00:37;15.23;;;13.00;;
22826;SDS011;11580;52.562;13.418;2023-01-25T05:03:04;14.77;;;13.30;;
22826;SDS011;11580;52.562;13.418;2023-01-25T05:05:31;17.60;;;15.77;;
22826;SDS011;11580;52.562;13.418;2023-01-25T05:08:03;15.67;;;13.87;;
22826;SDS011;11580;52.562;13.418;2023-01-25T05:10:32;16.90;;;14.80;;
22826;SDS011;11580;52.562;13.418;2023-01-25T05:13:19;17.23;;;14.37;;
22826;SDS011;11580;52.562;13.418;2023-01-25T05:15:49;17.80;;;15.30;;
22826;SDS011;11580;52.562;13.418;2023-01-25T05:18:16;16.30;;;14.70;;
22826;SDS011;11580;52.562;13.418;2023-01-25T05:20:43;20.67;;;14.83;;
22826;SDS011;11580;52.562;13.418;2023-01-25T05:23:11;17.47;;;13.90;;
22826;SDS011;11580;52.562;13.418;2023-01-25T05:25:39;16.40;;;14.60;;
22826;SDS011;11580;52.562;13.418;2023-01-25T05:28:30;16.00;;;14.30;;
22826;SDS011;11580;52.562;13.418;2023-01-25T05:31:33;19.10;;;16.37;;
22826;SDS011;11580;52.562;13.418;2023-01-25T05:34:00;18.13;;;14.80;;
22826;SDS011;11580;52.562;13.418;2023-01-25T05:36:28;15.67;;;13.23;;
22826;SDS011;11580;52.562;13.418;2023-01-25T05:38:55;18.00;;;14.73;;
22826;SDS011;11580;52.562;13.418;2023-01-25T05:41:25;19.13;;;14.40;;
22826;SDS011;11580;52.562;13.418;2023-01-25T05:43:53;17.13;;;15.40;;
22826;SDS011;11580;52.562;13.418;2023-01-25T05:46:22;16.80;;;13.37;;
22826;SDS011;11580;52.562;13.418;2023-01-25T05:48:49;14.73;;;12.90;;
22826;SDS011;11580;52.562;13.418;2023-01-25T05:51:17;15.43;;;13.40;;
22826;SDS011;11580;52.562;13.418;2023-01-25T05:53:44;15.97;;;12.83;;
22826;SDS011;11580;52.562;13.418;2023-01-25T05:56:12;13.80;;;12.40;;
22826;SDS011;11580;52.562;13.418;2023-01-25T05:58:40;15.43;;;12.53;;
22826;SDS011;11580;52.562;13.418;2023-01-25T06:01:07;12.53;;;11.20;;
22826;SDS011;11580;52.562;13.418;2023-01-25T06:03:46;13.13;;;11.83;;
22826;SDS011;11580;52.562;13.418;2023-01-25T06:06:13;12.30;;;11.07;;
22826;SDS011;11580;52.562;13.418;2023-01-25T06:08:41;12.97;;;11.63;;
22826;SDS011;11580;52.562;13.418;2023-01-25T06:11:09;14.10;;;11.17;;
22826;SDS011;11580;52.562;13.418;2023-01-25T06:13:44;12.90;;;10.60;;
22826;SDS011;11580;52.562;13.418;2023-01-25T06:16:12;10.70;;;9.60;;
22826;SDS011;11580;52.562;13.418;2023-01-25T06:18:40;11.73;;;10.50;;
22826;SDS011;11580;52.562;13.418;2023-01-25T06:21:27;12.30;;;10.10;;
22826;SDS011;11580;52.562;13.418;2023-01-25T06:23:54;11.10;;;10.00;;
22826;SDS011;11580;52.562;13.418;2023-01-25T06:26:21;13.30;;;11.10;;
22826;SDS011;11580;52.562;13.418;2023-01-25T06:28:49;14.03;;;12.20;;
22826;SDS011;11580;52.562;13.418;2023-01-25T06:31:17;14.30;;;12.80;;
22826;SDS011;11580;52.562;13.418;2023-01-25T06:33:46;13.90;;;12.50;;
22826;SDS011;11580;52.562;13.418;2023-01-25T06:36:18;13.93;;;12.53;;
22826;SDS011;11580;52.562;13.418;2023-01-25T06:38:47;12.43;;;11.13;;
22826;SDS011;11580;52.562;13.418;2023-01-25T06:41:15;12.20;;;10.43;;
22826;SDS011;11580;52.562;13.418;2023-01-25T06:43:43;11.13;;;9.93;;
22826;SDS011;11580;52.562;13.418;2023-01-25T06:46:13;10.13;;;9.13;;
22826;SDS011;11580;52.562;13.418;2023-01-25T06:48:40;11.57;;;8.10;;
22826;SDS011;11580;52.562;13.418;2023-01-25T06:51:09;10.07;;;9.07;;
22826;SDS011;11580;52.562;13.418;2023-01-25T06:53:39;9.03;;;8.13;;
22826;SDS011;11580;52.562;13.418;2023-01-25T06:56:09;9.50;;;8.60;;
22826;SDS011;11580;52.562;13.418;2023-01-25T06:58:39;10.97;;;9.40;;
22826;SDS011;11580;52.562;13.418;2023-01-25T07:01:07;12.17;;;8.80;;
22826;SDS011;11580;52.562;13.418;2023-01-25T07:03:46;10.00;;;8.87;;
22826;SDS011;11580;52.562;13.418;2023-01-25T07:06:14;8.70;;;7.90;;
22826;SDS011;11580;52.562;13.418;2023-01-25T07:08:41;9.20;;;8.07;;
22826;SDS011;11580;52.562;13.418;2023-01-25T07:11:09;8.40;;;7.60;;
22826;SDS011;11580;52.562;13.418;2023-01-25T07:13:38;10.13;;;9.13;;
22826;SDS011;11580;52.562;13.418;2023-01-25T07:16:06;10.23;;;9.20;;
22826;SDS011;11580;52.562;13.418;2023-01-25T07:18:39;9.37;;;8.50;;
22826;SDS011;11580;52.562;13.418;2023-01-25T07:21:07;9.97;;;9.03;;
22826;SDS011;11580;52.562;13.418;2023-01-25T07:23:38;10.77;;;9.60;;
22826;SDS011;11580;52.562;13.418;2023-01-25T07:26:09;11.17;;;10.03;;
22826;SDS011;11580;52.562;13.418;2023-01-25T07:28:42;10.73;;;9.30;;
22826;SDS011;11580;52.562;13.418;2023-01-25T07:31:10;11.20;;;10.00;;
22826;SDS011;11580;52.562;13.418;2023-01-25T07:33:39;11.60;;;10.47;;
22826;SDS011;11580;52.562;13.418;2023-01-25T07:36:07;12.00;;;10.83;;
22826;SDS011;11580;52.562;13.418;2023-01-25T07:38:36;12.27;;;11.03;;
22826;SDS011;11580;52.562;13.418;2023-01-25T07:41:04;13.70;;;11.97;;
22826;SDS011;11580;52.562;13.418;2023-01-25T07:43:31;12.70;;;11.40;;
22826;SDS011;11580;52.562;13.418;2023-01-25T07:46:01;13.60;;;11.23;;
22826;SDS011;11580;52.562;13.418;2023-01-25T07:48:31;12.80;;;11.50;;
22826;SDS011;11580;52.562;13.418;2023-01-25T07:51:00;12.73;;;11.43;;
22826;SDS011;11580;52.562;13.418;2023-01-25T07:53:36;13.90;;;11.67;;
22826;SDS011;11580;52.562;13.418;2023-01-25T07:56:05;12.90;;;11.47;;
22826;SDS011;11580;52.562;13.418;2023-01-25T07:58:32;12.20;;;11.10;;
22826;SDS011;11580;52.562;13.418;2023-01-25T08:01:04;13.40;;;12.00;;
22826;SDS011;11580;52.562;13.418;2023-01-25T08:03:34;12.80;;;11.10;;
22826;SDS011;11580;52.562;13.418;2023-01-25T08:06:03;12.07;;;10.77;;
22826;SDS011;11580;52.562;13.418;2023-01-25T08:08:31;12.23;;;10.83;;
22826;SDS011;11580;52.562;13.418;2023-01-25T08:11:00;13.80;;;12.20;;
22826;SDS011;11580;52.562;13.418;2023-01-25T08:13:34;12.80;;;11.60;;
22826;SDS011;11580;52.562;13.418;2023-01-25T08:16:01;13.90;;;11.50;;
22826;SDS011;11580;52.562;13.418;2023-01-25T08:18:28;13.30;;;12.00;;
22826;SDS011;11580;52.562;13.418;2023-01-25T08:20:56;12.50;;;11.30;;
22826;SDS011;11580;52.562;13.418;2023-01-25T08:23:25;12.33;;;11.03;;
22826;SDS011;11580;52.562;13.418;2023-01-25T08:25:53;13.67;;;12.27;;
22826;SDS011;11580;52.562;13.418;2023-01-25T08:28:20;13.40;;;12.00;;
22826;SDS011;11580;52.562;13.418;2023-01-25T08:30:48;13.47;;;12.07;;
22826;SDS011;11580;52.562;13.418;2023-01-25T08:33:15;14.27;;;12.87;;
22826;SDS011;11580;52.562;13.418;2023-01-25T08:35:42;14.00;;;12.50;;
22826;SDS011;11580;52.562;13.418;2023-01-25T08:38:20;13.53;;;12.13;;
22826;SDS011;11580;52.562;13.418;2023-01-25T08:40:49;13.80;;;12.17;;
22826;SDS011;11580;52.562;13.418;2023-01-25T08:43:17;13.30;;;12.00;;
22826;SDS011;11580;52.562;13.418;2023-01-25T08:45:44;18.27;;;12.60;;
22826;SDS011;11580;52.562;13.418;2023-01-25T08:48:11;13.60;;;12.20;;
22826;SDS011;11580;52.562;13.418;2023-01-25T08:50:44;13.53;;;11.90;;
22826;SDS011;11580;52.562;13.418;2023-01-25T08:53:12;12.30;;;11.00;;
22826;SDS011;11580;52.562;13.418;2023-01-25T08:55:39;11.73;;;10.60;;
22826;SDS011;11580;52.562;13.418;2023-01-25T08:58:09;11.03;;;9.90;;
22826;SDS011;11580;52.562;13.418;2023-01-25T09:00:37;13.00;;;11.47;;
22826;SDS011;11580;52.562;13.418;2023-01-25T09:03:05;11.47;;;10.27;;
22826;SDS011;11580;52.562;13.418;2023-01-25T09:05:33;12.77;;;10.50;;
22826;SDS011;11580;52.562;13.418;2023-01-25T09:08:01;11.93;;;10.73;;
22826;SDS011;11580;52.562;13.418;2023-01-25T09:10:29;11.50;;;10.30;;
22826;SDS011;11580;52.562;13.418;2023-01-25T09:12:57;13.87;;;11.43;;
22826;SDS011;11580;52.562;13.418;2023-01-25T09:15:26;10.13;;;9.17;;
22826;SDS011;11580;52.562;13.418;2023-01-25T09:17:54;11.03;;;9.57;;
22826;SDS011;11580;52.562;13.418;2023-01-25T09:20:22;13.27;;;11.87;;
22826;SDS011;11580;52.562;13.418;2023-01-25T09:22:50;13.67;;;10.63;;
22826;SDS011;11580;52.562;13.418;2023-01-25T09:25:17;11.73;;;10.53;;
22826;SDS011;11580;52.562;13.418;2023-01-25T09:27:47;16.87;;;12.20;;
22826;SDS011;11580;52.562;13.418;2023-01-25T09:30:16;13.30;;;11.83;;
22826;SDS011;11580;52.562;13.418;2023-01-25T09:32:50;13.77;;;11.80;;
22826;SDS011;11580;52.562;13.418;2023-01-25T09:35:18;12.30;;;10.53;;
22826;SDS011;11580;52.562;13.418;2023-01-25T09:37:48;12.03;;;10.77;;
22826;SDS011;11580;52.562;13.418;2023-01-25T09:40:17;11.80;;;10.70;;
22826;SDS011;11580;52.562;13.418;2023-01-25T09:42:53;16.33;;;12.50;;
22826;SDS011;11580;52.562;13.418;2023-01-25T09:45:30;11.80;;;10.60;;
22826;SDS011;11580;52.562;13.418;2023-01-25T09:48:03;11.73;;;10.30;;
22826;SDS011;11580;52.562;13.418;2023-01-25T09:50:48;13.17;;;11.87;;
22826;SDS011;11580;52.562;13.418;2023-01-25T09:53:32;13.30;;;10.83;;
22826;SDS011;11580;52.562;13.418;2023-01-25T09:56:02;14.03;;;11.00;;
22826;SDS011;11580;52.562;13.418;2023-01-25T09:58:38;13.30;;;11.90;;
22826;SDS011;11580;52.562;13.418;2023-01-25T10:01:16;12.93;;;11.40;;
22826;SDS011;11580;52.562;13.418;2023-01-25T10:03:55;13.07;;;11.43;;
22826;SDS011;11580;52.562;13.418;2023-01-25T10:06:32;12.50;;;11.23;;
22826;SDS011;11580;52.562;13.418;2023-01-25T10:09:12;13.13;;;11.77;;
22826;SDS011;11580;52.562;13.418;2023-01-25T10:11:57;12.87;;;11.33;;
22826;SDS011;11580;52.562;13.418;2023-01-25T10:14:31;13.70;;;12.30;;
22826;SDS011;11580;52.562;13.418;2023-01-25T10:17:02;14.80;;;11.47;;
22826;SDS011;11580;52.562;13.418;2023-01-25T10:19:46;13.60;;;12.10;;
22826;SDS011;11580;52.562;13.418;2023-01-25T10:22:32;12.43;;;11.13;;
22826;SDS011;11580;52.562;13.418;2023-01-25T10:25:20;13.30;;;10.63;;
22826;SDS011;11580;52.562;13.418;2023-01-25T10:28:08;12.47;;;11.17;;
22826;SDS011;11580;52.562;13.418;2023-01-25T10:30:52;13.33;;;11.87;;
22826;SDS011;11580;52.562;13.418;2023-01-25T10:33:26;13.33;;;11.43;;
22826;SDS011;11580;52.562;13.418;2023-01-25T10:35:58;15.13;;;11.13;;
22826;SDS011;11580;52.562;13.418;2023-01-25T10:38:31;13.90;;;11.50;;
22826;SDS011;11580;52.562;13.418;2023-01-25T10:41:06;13.97;;;11.50;;
22826;SDS011;11580;52.562;13.418;2023-01-25T10:43:42;14.10;;;12.70;;
22826;SDS011;11580;52.562;13.418;2023-01-25T10:46:15;14.20;;;11.97;;
22826;SDS011;11580;52.562;13.418;2023-01-25T10:48:47;11.90;;;10.70;;
22826;SDS011;11580;52.562;13.418;2023-01-25T10:51:29;15.60;;;11.80;;
22826;SDS011;11580;52.562;13.418;2023-01-25T10:54:00;15.07;;;11.70;;
22826;SDS011;11580;52.562;13.418;2023-01-25T10:56:28;13.87;;;12.47;;
22826;SDS011;11580;52.562;13.418;2023-01-25T10:59:06;14.60;;;13.00;;
22826;SDS011;11580;52.562;13.418;2023-01-25T11:01:43;14.93;;;12.23;;
22826;SDS011;11580;52.562;13.418;2023-01-25T11:07:10;14.20;;;11.67;;
22826;SDS011;11580;52.562;13.418;2023-01-25T11:09:53;11.87;;;10.50;;
22826;SDS011;11580;52.562;13.418;2023-01-25T11:12:20;14.30;;;12.10;;
22826;SDS011;11580;52.562;13.418;2023-01-25T11:14:48;14.00;;;10.90;;
22826;SDS011;11580;52.562;13.418;2023-01-25T11:17:23;13.40;;;11.93;;
22826;SDS011;11580;52.562;13.418;2023-01-25T11:20:13;14.87;;;11.50;;
22826;SDS011;11580;52.562;13.418;2023-01-25T11:22:49;15.00;;;12.13;;
22826;SDS011;11580;52.562;13.418;2023-01-25T11:25:24;13.43;;;12.00;;
22826;SDS011;11580;52.562;13.418;2023-01-25T11:30:46;14.47;;;12.93;;
22826;SDS011;11580;52.562;13.418;2023-01-25T11:33:14;15.40;;;13.43;;
22826;SDS011;11580;52.562;13.418;2023-01-25T11:36:05;15.47;;;13.87;;
22826;SDS011;11580;52.562;13.418;2023-01-25T11:38:48;13.70;;;12.30;;
22826;SDS011;11580;52.562;13.418;2023-01-25T11:41:32;14.77;;;12.20;;
22826;SDS011;11580;52.562;13.418;2023-01-25T11:44:29;13.13;;;11.83;;
22826;SDS011;11580;52.562;13.418;2023-01-25T11:47:44;12.43;;;11.13;;
22826;SDS011;11580;52.562;13.418;2023-01-25T11:50:27;13.40;;;11.93;;
22826;SDS011;11580;52.562;13.418;2023-01-25T11:53:13;16.37;;;12.53;;
22826;SDS011;11580;52.562;13.418;2023-01-25T11:56:03;15.43;;;12.87;;
22826;SDS011;11580;52.562;13.418;2023-01-25T11:58:49;17.10;;;13.20;;
22826;SDS011;11580;52.562;13.418;2023-01-25T12:01:33;14.80;;;13.07;;
22826;SDS011;11580;52.562;13.418;2023-01-25T12:04:17;15.90;;;13.63;;
22826;SDS011;11580;52.562;13.418;2023-01-25T12:07:10;16.90;;;13.20;;
22826;SDS011;11580;52.562;13.418;2023-01-25T12:09:57;15.60;;;12.83;;
22826;SDS011;11580;52.562;13.418;2023-01-25T12:12:43;14.23;;;12.73;;
22826;SDS011;11580;52.562;13.418;2023-01-25T12:15:34;18.47;;;13.77;;
22826;SDS011;11580;52.562;13.418;2023-01-25T12:21:51;14.23;;;12.67;;
22826;SDS011;11580;52.562;13.418;2023-01-25T12:24:50;17.77;;;13.33;;
22826;SDS011;11580;52.562;13.418;2023-01-25T12:27:30;16.93;;;13.67;;
22826;SDS011;11580;52.562;13.418;2023-01-25T12:30:20;16.73;;;13.67;;
22826;SDS011;11580;52.562;13.418;2023-01-25T12:33:19;20.43;;;14.50;;
22826;SDS011;11580;52.562;13.418;2023-01-25T12:35:51;18.17;;;14.27;;
22826;SDS011;11580;52.562;13.418;2023-01-25T12:38:26;17.60;;;14.80;;
22826;SDS011;11580;52.562;13.418;2023-01-25T12:41:01;17.97;;;14.60;;
22826;SDS011;11580;52.562;13.418;2023-01-25T12:43:41;21.40;;;16.00;;
22826;SDS011;11580;52.562;13.418;2023-01-25T12:46:16;21.40;;;16.20;;
22826;SDS011;11580;52.562;13.418;2023-01-25T12:48:51;16.93;;;15.17;;
22826;SDS011;11580;52.562;13.418;2023-01-25T12:51:24;18.13;;;16.00;;
22826;SDS011;11580;52.562;13.418;2023-01-25T12:54:10;17.50;;;14.97;;
22826;SDS011;11580;52.562;13.418;2023-01-25T12:56:45;18.17;;;15.63;;
22826;SDS011;11580;52.562;13.418;2023-01-25T12:59:32;17.00;;;15.13;;
22826;SDS011;11580;52.562;13.418;2023-01-25T13:05:09;18.10;;;13.37;;
22826;SDS011;11580;52.562;13.418;2023-01-25T13:07:52;16.23;;;13.90;;
22826;SDS011;11580;52.562;13.418;2023-01-25T13:10:32;14.03;;;12.53;;
22826;SDS011;11580;52.562;13.418;2023-01-25T13:13:17;17.50;;;14.80;;
22826;SDS011;11580;52.562;13.418;2023-01-25T13:15:49;17.83;;;14.30;;
22826;SDS011;11580;52.562;13.418;2023-01-25T13:18:34;14.83;;;13.23;;
22826;SDS011;11580;52.562;13.418;2023-01-25T13:21:06;16.20;;;14.40;;
22826;SDS011;11580;52.562;13.418;2023-01-25T13:24:06;15.30;;;13.70;;
22826;SDS011;11580;52.562;13.418;2023-01-25T13:26:47;17.43;;;13.60;;
22826;SDS011;11580;52.562;13.418;2023-01-25T13:32:14;16.93;;;14.50;;
22826;SDS011;11580;52.562;13.418;2023-01-25T13:35:37;19.70;;;15.27;;
22826;SDS011;11580;52.562;13.418;2023-01-25T13:38:21;19.40;;;15.30;;
22826;SDS011;11580;52.562;13.418;2023-01-25T13:41:07;18.77;;;16.20;;
22826;SDS011;11580;52.562;13.418;2023-01-25T13:43:42;19.33;;;15.73;;
22826;SDS011;11580;52.562;13.418;2023-01-25T13:46:16;18.23;;;15.23;;
22826;SDS011;11580;52.562;13.418;2023-01-25T13:48:54;21.03;;;16.80;;
22826;SDS011;11580;52.562;13.418;2023-01-25T13:51:32;19.00;;;14.07;;
22826;SDS011;11580;52.562;13.418;2023-01-25T13:54:13;17.30;;;13.97;;
22826;SDS011;11580;52.562;13.418;2023-01-25T13:56:42;16.40;;;13.70;;
22826;SDS011;11580;52.562;13.418;2023-01-25T13:59:22;16.93;;;13.97;;
22826;SDS011;11580;52.562;13.418;2023-01-25T14:01:51;18.60;;;15.20;;
22826;SDS011;11580;52.562;13.418;2023-01-25T14:04:20;17.67;;;13.67;;
22826;SDS011;11580;52.562;13.418;2023-01-25T14:06:47;17.33;;;12.80;;
22826;SDS011;11580;52.562;13.418;2023-01-25T14:09:21;18.03;;;14.27;;
22826;SDS011;11580;52.562;13.418;2023-01-25T14:11:57;18.30;;;14.57;;
22826;SDS011;11580;52.562;13.418;2023-01-25T14:14:28;16.70;;;14.00;;
22826;SDS011;11580;52.562;13.418;2023-01-25T14:17:01;19.93;;;15.00;;
22826;SDS011;11580;52.562;13.418;2023-01-25T14:19:40;16.03;;;13.60;;
22826;SDS011;11580;52.562;13.418;2023-01-25T14:22:16;16.77;;;14.20;;
22826;SDS011;11580;52.562;13.418;2023-01-25T14:25:02;18.13;;;14.63;;
22826;SDS011;11580;52.562;13.418;2023-01-25T14:27:40;21.23;;;15.20;;
22826;SDS011;11580;52.562;13.418;2023-01-25T14:30:20;18.20;;;15.10;;
22826;SDS011;11580;52.562;13.418;2023-01-25T14:32:50;17.90;;;15.23;;
22826;SDS011;11580;52.562;13.418;2023-01-25T14:35:34;19.20;;;14.57;;
22826;SDS011;11580;52.562;13.418;2023-01-25T14:38:17;19.40;;;15.97;;
22826;SDS011;11580;52.562;13.418;2023-01-25T14:40:54;18.23;;;15.83;;
22826;SDS011;11580;52.562;13.418;2023-01-25T14:43:27;17.83;;;14.03;;
22826;SDS011;11580;52.562;13.418;2023-01-25T14:45:56;19.23;;;14.70;;
22826;SDS011;11580;52.562;13.418;2023-01-25T14:48:36;17.37;;;14.13;;
22826;SDS011;11580;52.562;13.418;2023-01-25T14:51:11;18.10;;;13.63;;
22826;SDS011;11580;52.562;13.418;2023-01-25T14:53:46;19.57;;;14.07;;
22826;SDS011;11580;52.562;13.418;2023-01-25T14:56:31;19.53;;;14.50;;
22826;SDS011;11580;52.562;13.418;2023-01-25T14:59:14;19.13;;;13.87;;